Terminal Aerodrome Forecast
Issued by NWS

Home | Current Version | Previous Version | Graphics & Text | Print | Product List | Glossary On
Versions: 1 2 3 4 5 6 7 8 9 10 11 12 13 14 15 16 17 18 19 20 21 22 23
791
FTUS43 KLSX 270911 AAC
TAFSUS
TAF AMD
KSUS 270911Z 2709/2806 VRB03KT 5SM BR SCT027 BKN040
      TEMPO 2709/2713 1 1/2SM BR BKN027
     FM271300 02004KT P6SM SCT040
     FM271500 13007KT P6SM BKN040
     FM280000 14007KT P6SM BKN040
      TEMPO 2801/2804 VRB35KT 2SM TSRA BKN035CB=

USA.gov is the U.S. government's official web portal to all federal, state and local government web resources and services.